Tahitian Princess — ZCDD8 — position and weather

sailwx.info

Track history (hours):
 
Tides and Currents Weather Stations Pressure Air Temp Water Temp Dewpoint Dewpoint Depression Visibility Wind Speed Wind Dir Waves Ship Positions

Tahitian Princess

Operator: P & O Irish Sea Ltd

Last reported at 2020-Aug-04 04:51 UTC. Time now 2020-Aug-04 14:50 UTC.
Position N 54°59' W 001°31'.

Length 167 m; draft 5.7 m.

Type: Ship (hazmat cat A). MMSI: 310362000.

Date/timePositionNaut miles runAvg speedWind from/ knotsBaromVisibWave heightAir tempDewpointWater temp
2020-Aug-04 04:51N 54°59' W 001°31'0 0.0
2020-Aug-04 03:59N 54°59' W 001°31'0 0.0
2020-Aug-04 03:00N 54°59' W 001°31'0 0.0
2020-Aug-03 22:12N 54°59' W 001°31'0 0.0
2020-Aug-03 16:13N 54°59' W 001°31'0 0.0
2020-Aug-03 15:30N 54°59' W 001°31'7 2.9
2020-Aug-03 13:00N 55°02' W 001°20'2813.7
2020-Aug-03 10:57N 55°29' W 001°02'1515.5
2020-Aug-03 10:00N 55°42' W 000°53'9015.1
2020-Aug-03 04:05N 57°11' W 001°19'915.8
2020-Aug-03 03:31N 57°19' W 001°26'33 9.5
2020-Aug-03 00:01N 57°46' W 002°02'7511.6
2020-Aug-02 17:30N 58°43' W 003°34'1615.8
2020-Aug-02 16:31N 58°44' W 004°05'4113.7
2020-Aug-02 13:30N 58°29' W 005°18'714.5
2020-Aug-02 13:00N 58°23' W 005°26'714.6
2020-Aug-02 12:30N 58°17' W 005°34'15113.8
2020-Aug-02 01:33N 55°53' W 006°56'815.5
2020-Aug-02 01:01N 55°46' W 006°47'3915.6
2020-Aug-01 22:30N 55°19' W 005°56'12214.3
2020-Aug-01 14:00N 53°39' W 003°57'3514.2
2020-Aug-01 11:30N 53°27' W 003°01'0 0.2
2020-Aug-01 09:28N 53°27' W 003°01'0 0.0
2020-Aug-01 05:28N 53°27' W 003°01'5 2.2
2020-Aug-01 03:00N 53°31' W 003°07'816.6
2020-Aug-01 02:30N 53°31' W 003°21'7915.7
2020-Jul-31 21:30N 53°26' W 005°33'25 7.0
2020-Jul-31 18:01N 53°21' W 006°13'10 3.9
2020-Jul-31 15:31N 53°22' W 005°57'6015.8
2020-Jul-31 11:42N 53°35' W 004°18'2816.7
2020-Jul-31 10:01N 53°33' W 003°31'18 5.3
2020-Jul-31 06:30N 53°27' W 003°01'0 0.0
2020-Jul-31 06:00N 53°27' W 003°01'0 0.0
2020-Jul-31 05:00N 53°27' W 003°01'0 0.4
2020-Jul-31 04:00N 53°27' W 003°01'3511.8
2020-Jul-31 01:00N 53°33' W 003°59'815.4
2020-Jul-31 00:30N 53°35' W 004°12'3616.5
2020-Jul-30 22:21N 53°30' W 005°11'1618.7
2020-Jul-30 21:30N 53°25' W 005°37'1818.1
2020-Jul-30 20:30N 53°20' W 006°06'5 4.5
2020-Jul-30 19:30N 53°21' W 006°13'43 7.1
2020-Jul-30 13:28N 53°31' W 005°03'5217.6
2020-Jul-30 10:31N 53°33' W 003°36'2214.3
2020-Jul-30 09:01N 53°27' W 003°01'0 0.9
2020-Jul-30 08:30N 53°27' W 003°01'0 0.0
2020-Jul-30 06:00N 53°27' W 003°01'0 0.2
2020-Jul-30 04:00N 53°27' W 003°01'10515.0
2020-Jul-29 21:00N 53°22' W 005°57'815.9
2020-Jul-29 20:30N 53°21' W 006°10'2 1.7
2020-Jul-29 19:30N 53°21' W 006°13'0 0.0
2020-Jul-29 17:00N 53°21' W 006°13'0 0.2
2020-Jul-29 16:30N 53°21' W 006°13'1414.1
2020-Jul-29 15:30N 53°24' W 005°50'10116.8
2020-Jul-29 09:31N 53°27' W 003°01'4 0.8
2020-Jul-29 05:00N 53°30' W 003°06'3718.1
2020-Jul-29 02:58N 53°34' W 004°07'4519.0
2020-Jul-29 00:35N 53°29' W 005°23'2119.3
2020-Jul-28 23:30N 53°22' W 005°56'10 2.6
2020-Jul-28 19:30N 53°21' W 006°13'8116.9
2020-Jul-28 14:44N 53°34' W 003°59'3118.3
2020-Jul-28 13:01N 53°31' W 003°06'5 3.2
2020-Jul-28 11:30N 53°27' W 003°01'0 0.0
2020-Jul-28 11:00N 53°27' W 003°01'0 0.0
2020-Jul-28 10:30N 53°27' W 003°01'0 0.0
2020-Jul-28 09:30N 53°27' W 003°01'4 1.5
2020-Jul-28 06:30N 53°31' W 003°06'1212.4
2020-Jul-28 05:30N 53°32' W 003°27'11 2.7
2020-Jul-28 01:31N 53°32' W 003°45'8913.6
2020-Jul-27 19:00N 53°21' W 006°13'0 0.0
2020-Jul-27 17:30N 53°21' W 006°13'0 0.3
2020-Jul-27 16:57N 53°21' W 006°13'0 0.0
2020-Jul-27 16:21N 53°21' W 006°13'0 0.0
2020-Jul-27 15:51N 53°21' W 006°13'0 0.0
2020-Jul-27 15:24N 53°21' W 006°13'0 0.0
2020-Jul-27 14:54N 53°21' W 006°13'0 0.0
2020-Jul-27 14:21N 53°21' W 006°13'0 0.0
2020-Jul-27 11:42N 53°21' W 006°13'0 0.0
2020-Jul-27 10:00N 53°21' W 006°13'0 0.0
2020-Jul-27 09:30N 53°21' W 006°13'0 0.0
2020-Jul-27 07:54N 53°21' W 006°13'0 0.1
2020-Jul-27 06:18N 53°21' W 006°13'0 0.0
2020-Jul-27 05:30N 53°21' W 006°13'0 0.0
2020-Jul-27 04:30N 53°21' W 006°13'3 3.3
2020-Jul-27 03:30N 53°21' W 006°07'917.7
2020-Jul-27 03:00N 53°23' W 005°53'816.8
2020-Jul-27 02:31N 53°25' W 005°40'816.7
2020-Jul-27 02:00N 53°27' W 005°26'8615.7
2020-Jul-26 20:31N 53°27' W 003°01'0 0.2
2020-Jul-26 18:01N 53°27' W 003°01'0 0.0
2020-Jul-26 17:31N 53°27' W 003°01'0 0.0
2020-Jul-26 16:01N 53°27' W 003°01'0 0.0
2020-Jul-26 15:31N 53°27' W 003°01'0 0.0
2020-Jul-26 12:01N 53°27' W 003°01'0 0.0
2020-Jul-26 11:31N 53°27' W 003°01'0 0.0
2020-Jul-26 09:01N 53°27' W 003°01'0 0.0
2020-Jul-26 07:31N 53°27' W 003°01'0 0.0
2020-Jul-26 05:31N 53°27' W 003°01'21 7.1
2020-Jul-26 02:30N 53°31' W 003°36'10 0.6
2020-Jul-25 10:01N 53°32' W 003°20'12 4.8
2020-Jul-25 07:30N 53°27' W 003°01'0 0.0
2020-Jul-25 06:00N 53°27' W 003°01'0 0.0
2020-Jul-25 05:30N 53°27' W 003°01'  
Track history (hours):
 
Tides and Currents Weather Stations Pressure Air Temp Water Temp Dewpoint Dewpoint Depression Visibility Wind Speed Wind Dir Waves Ship Positions

Tahitian Princess

Operator: P & O Irish Sea Ltd

Last reported at 2020-Aug-04 04:51 UTC. Time now 2020-Aug-04 14:50 UTC.
Position N 54°59' W 001°31'.

Length 167 m; draft 5.7 m.

Type: Ship (hazmat cat A). MMSI: 310362000.

Date/timePositionNaut miles runAvg speedWind from/ knotsBaromVisibWave heightAir tempDewpointWater temp
2020-Aug-04 04:51N 54°59' W 001°31'0 0.0
2020-Aug-04 03:59N 54°59' W 001°31'0 0.0
2020-Aug-04 03:00N 54°59' W 001°31'0 0.0
2020-Aug-03 22:12N 54°59' W 001°31'0 0.0
2020-Aug-03 16:13N 54°59' W 001°31'0 0.0
2020-Aug-03 15:30N 54°59' W 001°31'7 2.9
2020-Aug-03 13:00N 55°02' W 001°20'2813.7
2020-Aug-03 10:57N 55°29' W 001°02'1515.5
2020-Aug-03 10:00N 55°42' W 000°53'9015.1
2020-Aug-03 04:05N 57°11' W 001°19'915.8
2020-Aug-03 03:31N 57°19' W 001°26'33 9.5
2020-Aug-03 00:01N 57°46' W 002°02'7511.6
2020-Aug-02 17:30N 58°43' W 003°34'1615.8
2020-Aug-02 16:31N 58°44' W 004°05'4113.7
2020-Aug-02 13:30N 58°29' W 005°18'714.5
2020-Aug-02 13:00N 58°23' W 005°26'714.6
2020-Aug-02 12:30N 58°17' W 005°34'15113.8
2020-Aug-02 01:33N 55°53' W 006°56'815.5
2020-Aug-02 01:01N 55°46' W 006°47'3915.6
2020-Aug-01 22:30N 55°19' W 005°56'12214.3
2020-Aug-01 14:00N 53°39' W 003°57'3514.2
2020-Aug-01 11:30N 53°27' W 003°01'0 0.2
2020-Aug-01 09:28N 53°27' W 003°01'0 0.0
2020-Aug-01 05:28N 53°27' W 003°01'5 2.2
2020-Aug-01 03:00N 53°31' W 003°07'816.6
2020-Aug-01 02:30N 53°31' W 003°21'7915.7
2020-Jul-31 21:30N 53°26' W 005°33'25 7.0
2020-Jul-31 18:01N 53°21' W 006°13'10 3.9
2020-Jul-31 15:31N 53°22' W 005°57'6015.8
2020-Jul-31 11:42N 53°35' W 004°18'2816.7
2020-Jul-31 10:01N 53°33' W 003°31'18 5.3
2020-Jul-31 06:30N 53°27' W 003°01'0 0.0
2020-Jul-31 06:00N 53°27' W 003°01'0 0.0
2020-Jul-31 05:00N 53°27' W 003°01'0 0.4
2020-Jul-31 04:00N 53°27' W 003°01'3511.8
2020-Jul-31 01:00N 53°33' W 003°59'815.4
2020-Jul-31 00:30N 53°35' W 004°12'3616.5
2020-Jul-30 22:21N 53°30' W 005°11'1618.7
2020-Jul-30 21:30N 53°25' W 005°37'1818.1
2020-Jul-30 20:30N 53°20' W 006°06'5 4.5
2020-Jul-30 19:30N 53°21' W 006°13'43 7.1
2020-Jul-30 13:28N 53°31' W 005°03'5217.6
2020-Jul-30 10:31N 53°33' W 003°36'2214.3
2020-Jul-30 09:01N 53°27' W 003°01'0 0.9
2020-Jul-30 08:30N 53°27' W 003°01'0 0.0
2020-Jul-30 06:00N 53°27' W 003°01'0 0.2
2020-Jul-30 04:00N 53°27' W 003°01'10515.0
2020-Jul-29 21:00N 53°22' W 005°57'815.9
2020-Jul-29 20:30N 53°21' W 006°10'2 1.7
2020-Jul-29 19:30N 53°21' W 006°13'0 0.0
2020-Jul-29 17:00N 53°21' W 006°13'0 0.2
2020-Jul-29 16:30N 53°21' W 006°13'1414.1
2020-Jul-29 15:30N 53°24' W 005°50'10116.8
2020-Jul-29 09:31N 53°27' W 003°01'4 0.8
2020-Jul-29 05:00N 53°30' W 003°06'3718.1
2020-Jul-29 02:58N 53°34' W 004°07'4519.0
2020-Jul-29 00:35N 53°29' W 005°23'2119.3
2020-Jul-28 23:30N 53°22' W 005°56'10 2.6
2020-Jul-28 19:30N 53°21' W 006°13'8116.9
2020-Jul-28 14:44N 53°34' W 003°59'3118.3
2020-Jul-28 13:01N 53°31' W 003°06'5 3.2
2020-Jul-28 11:30N 53°27' W 003°01'0 0.0
2020-Jul-28 11:00N 53°27' W 003°01'0 0.0
2020-Jul-28 10:30N 53°27' W 003°01'0 0.0
2020-Jul-28 09:30N 53°27' W 003°01'4 1.5
2020-Jul-28 06:30N 53°31' W 003°06'1212.4
2020-Jul-28 05:30N 53°32' W 003°27'11 2.7
2020-Jul-28 01:31N 53°32' W 003°45'8913.6
2020-Jul-27 19:00N 53°21' W 006°13'0 0.0
2020-Jul-27 17:30N 53°21' W 006°13'0 0.3
2020-Jul-27 16:57N 53°21' W 006°13'0 0.0
2020-Jul-27 16:21N 53°21' W 006°13'0 0.0
2020-Jul-27 15:51N 53°21' W 006°13'0 0.0
2020-Jul-27 15:24N 53°21' W 006°13'0 0.0
2020-Jul-27 14:54N 53°21' W 006°13'0 0.0
2020-Jul-27 14:21N 53°21' W 006°13'0 0.0
2020-Jul-27 11:42N 53°21' W 006°13'0 0.0
2020-Jul-27 10:00N 53°21' W 006°13'0 0.0
2020-Jul-27 09:30N 53°21' W 006°13'0 0.0
2020-Jul-27 07:54N 53°21' W 006°13'0 0.1
2020-Jul-27 06:18N 53°21' W 006°13'0 0.0
2020-Jul-27 05:30N 53°21' W 006°13'0 0.0
2020-Jul-27 04:30N 53°21' W 006°13'3 3.3
2020-Jul-27 03:30N 53°21' W 006°07'917.7
2020-Jul-27 03:00N 53°23' W 005°53'816.8
2020-Jul-27 02:31N 53°25' W 005°40'816.7
2020-Jul-27 02:00N 53°27' W 005°26'8615.7
2020-Jul-26 20:31N 53°27' W 003°01'0 0.2
2020-Jul-26 18:01N 53°27' W 003°01'0 0.0
2020-Jul-26 17:31N 53°27' W 003°01'0 0.0
2020-Jul-26 16:01N 53°27' W 003°01'0 0.0
2020-Jul-26 15:31N 53°27' W 003°01'0 0.0
2020-Jul-26 12:01N 53°27' W 003°01'0 0.0
2020-Jul-26 11:31N 53°27' W 003°01'0 0.0
2020-Jul-26 09:01N 53°27' W 003°01'0 0.0
2020-Jul-26 07:31N 53°27' W 003°01'0 0.0
2020-Jul-26 05:31N 53°27' W 003°01'21 7.1
2020-Jul-26 02:30N 53°31' W 003°36'10 0.6
2020-Jul-25 10:01N 53°32' W 003°20'12 4.8
2020-Jul-25 07:30N 53°27' W 003°01'0 0.0
2020-Jul-25 06:00N 53°27' W 003°01'0 0.0
2020-Jul-25 05:30N 53°27' W 003°01'  

Dump ship's entire track history